Time;durP1;ratioP1;P1;durP2;ratioP2;P2;SDS_P1;SDS_P2;PMS_P1;PMS_P2;Temp;Humidity;BMP_temperature;BMP_pressure;BME280_temperature;BME280_humidity;BME280_pressure;Samples;Min_cycle;Max_cycle;Signal;HPM_P1;HPM_P2
2023/10/04 00:00:29;;;;;;;11.18;3.20;;;13.70;87.70;;;;;;5020892;28;20045;-78
2023/10/04 00:02:54;;;;;;;12.02;3.15;;;13.70;87.80;;;;;;5015778;28;20139;-75
2023/10/04 00:05:23;;;;;;;12.70;3.40;;;13.60;87.90;;;;;;5022068;28;20040;-79
2023/10/04 00:07:51;;;;;;;9.90;4.03;;;13.60;87.90;;;;;;5014658;28;20033;-78
2023/10/04 00:10:17;;;;;;;17.48;3.42;;;13.60;88.10;;;;;;5017958;28;20041;-79
2023/10/04 00:12:45;;;;;;;12.55;3.50;;;13.60;88.20;;;;;;5018303;28;20032;-76
2023/10/04 00:15:12;;;;;;;13.77;3.58;;;13.60;88.10;;;;;;5022004;28;20037;-80
2023/10/04 00:17:41;;;;;;;11.43;3.97;;;13.60;88.00;;;;;;5018759;28;20034;-76
2023/10/04 00:20:13;;;;;;;11.40;3.40;;;13.60;88.00;;;;;;5021135;28;20081;-77
2023/10/04 00:22:39;;;;;;;12.82;4.45;;;13.50;87.90;;;;;;5014135;28;20065;-78
2023/10/04 00:25:11;;;;;;;14.13;4.20;;;13.50;87.90;;;;;;5020233;28;20025;-81
2023/10/04 00:27:40;;;;;;;10.48;3.30;;;13.60;87.80;;;;;;5014130;28;20424;-75
2023/10/04 00:30:10;;;;;;;12.88;3.67;;;13.60;87.70;;;;;;5018889;28;20056;-76
2023/10/04 00:32:36;;;;;;;11.93;4.68;;;13.60;87.50;;;;;;5011274;28;20068;-77
2023/10/04 00:35:03;;;;;;;12.85;3.63;;;13.60;87.30;;;;;;5016971;28;20373;-75
2023/10/04 00:37:31;;;;;;;15.13;3.65;;;13.60;87.30;;;;;;5016725;28;20029;-78
2023/10/04 00:39:58;;;;;;;10.15;3.70;;;13.70;87.20;;;;;;5021070;28;20029;-75
2023/10/04 00:42:25;;;;;;;13.27;3.80;;;13.70;87.10;;;;;;5018136;28;20022;-75
2023/10/04 00:44:51;;;;;;;9.15;3.53;;;13.80;87.00;;;;;;5012816;28;20075;-74
2023/10/04 00:47:17;;;;;;;10.55;3.30;;;13.70;86.90;;;;;;5012220;28;20511;-76
2023/10/04 00:49:47;;;;;;;9.90;3.53;;;13.70;87.00;;;;;;5011299;28;20316;-75
2023/10/04 00:52:13;;;;;;;9.15;3.13;;;13.70;87.00;;;;;;5016571;28;20227;-76
2023/10/04 00:54:40;;;;;;;12.63;4.03;;;13.70;87.10;;;;;;5012163;28;20034;-76
2023/10/04 00:57:10;;;;;;;10.68;3.50;;;13.70;87.20;;;;;;5016847;28;20133;-74
2023/10/04 00:59:36;;;;;;;12.88;3.42;;;13.70;87.10;;;;;;5018220;28;20504;-73
2023/10/04 01:02:02;;;;;;;11.90;4.00;;;13.70;86.90;;;;;;5016477;28;20071;-77
2023/10/04 01:04:27;;;;;;;14.00;3.90;;;13.80;86.90;;;;;;5012217;28;20033;-75
2023/10/04 01:06:54;;;;;;;11.65;3.80;;;13.70;87.00;;;;;;5020336;28;20033;-74
2023/10/04 01:09:23;;;;;;;12.35;4.53;;;13.70;87.00;;;;;;5018397;28;20036;-76
2023/10/04 01:11:48;;;;;;;11.18;3.72;;;13.80;86.90;;;;;;5016300;28;20049;-74
2023/10/04 01:14:26;;;;;;;11.23;3.75;;;13.70;86.90;;;;;;5016833;28;20030;-75
2023/10/04 01:16:52;;;;;;;11.77;3.75;;;13.70;86.90;;;;;;5020189;28;20088;-75
2023/10/04 01:19:20;;;;;;;10.63;4.30;;;13.70;86.90;;;;;;5017693;28;20026;-77
2023/10/04 01:21:46;;;;;;;10.40;3.88;;;13.60;86.90;;;;;;5017819;28;20030;-77
2023/10/04 01:24:12;;;;;;;11.25;3.95;;;13.70;87.00;;;;;;5015873;28;20152;-75
2023/10/04 01:26:39;;;;;;;11.07;4.05;;;13.70;87.10;;;;;;5016888;28;20056;-80
2023/10/04 01:29:11;;;;;;;15.43;4.18;;;13.60;87.00;;;;;;5014377;28;20052;-76
2023/10/04 01:31:37;;;;;;;11.02;3.75;;;13.70;86.90;;;;;;5015792;28;20037;-74
2023/10/04 01:34:04;;;;;;;12.52;4.07;;;13.70;86.90;;;;;;5019040;28;20077;-79
2023/10/04 01:36:36;;;;;;;10.40;3.70;;;13.70;86.90;;;;;;5013834;28;20034;-77
2023/10/04 01:39:07;;;;;;;13.55;3.70;;;13.60;87.00;;;;;;5018451;28;20479;-75
2023/10/04 01:41:37;;;;;;;12.30;3.67;;;13.60;87.10;;;;;;5020445;28;20033;-75
2023/10/04 01:44:04;;;;;;;11.77;3.45;;;13.60;87.10;;;;;;5018267;28;20103;-77
2023/10/04 01:46:30;;;;;;;13.57;4.00;;;13.70;87.10;;;;;;5010865;28;20037;-75
2023/10/04 01:48:56;;;;;;;11.90;3.30;;;13.60;87.20;;;;;;5015527;28;20045;-76
2023/10/04 01:51:22;;;;;;;13.50;3.65;;;13.60;87.30;;;;;;5006628;28;20041;-79
2023/10/04 01:53:50;;;;;;;14.32;4.15;;;13.60;87.40;;;;;;5012411;28;20038;-76
2023/10/04 01:56:17;;;;;;;17.13;4.25;;;13.60;87.50;;;;;;5014277;28;20045;-77
2023/10/04 01:58:43;;;;;;;13.38;3.70;;;13.60;87.60;;;;;;5020103;28;20111;-80
2023/10/04 02:01:08;;;;;;;11.35;3.65;;;13.50;87.70;;;;;;5016705;28;20088;-74
2023/10/04 02:03:34;;;;;;;13.45;3.60;;;13.50;88.00;;;;;;5016974;28;20041;-75
2023/10/04 02:06:00;;;;;;;10.80;3.50;;;13.40;87.90;;;;;;5025550;28;20034;-75
2023/10/04 02:08:28;;;;;;;17.95;4.22;;;13.40;87.90;;;;;;5019505;28;20365;-75
2023/10/04 02:10:54;;;;;;;10.13;4.00;;;13.40;88.00;;;;;;5020769;28;20064;-83
2023/10/04 02:13:20;;;;;;;15.20;4.70;;;13.30;88.10;;;;;;5017699;28;20033;-75
2023/10/04 02:15:48;;;;;;;12.25;4.10;;;13.30;88.20;;;;;;5020567;28;20033;-75
2023/10/04 02:18:15;;;;;;;14.05;4.15;;;13.30;88.40;;;;;;5012896;28;20428;-76
2023/10/04 02:20:46;;;;;;;10.50;4.13;;;13.20;88.50;;;;;;5023334;28;20492;-75
2023/10/04 02:23:13;;;;;;;14.60;4.55;;;13.30;88.50;;;;;;5014694;28;20162;-76
2023/10/04 02:25:39;;;;;;;12.88;3.92;;;13.10;88.60;;;;;;5019518;28;20132;-76
2023/10/04 02:28:11;;;;;;;15.73;4.38;;;13.10;88.80;;;;;;5016498;28;20160;-78
2023/10/04 02:30:40;;;;;;;16.02;4.30;;;13.10;88.90;;;;;;5016407;28;20222;-75
2023/10/04 02:33:13;;;;;;;15.02;4.45;;;13.10;89.10;;;;;;5013350;28;20128;-75
2023/10/04 02:35:47;;;;;;;13.13;4.05;;;13.10;89.10;;;;;;5021444;28;20437;-74
2023/10/04 02:38:23;;;;;;;13.40;4.30;;;13.10;89.20;;;;;;5012511;28;20037;-74
2023/10/04 02:40:52;;;;;;;14.82;4.30;;;13.10;89.30;;;;;;5021657;28;20099;-77
2023/10/04 02:43:27;;;;;;;15.38;4.30;;;13.10;89.40;;;;;;5022823;28;20400;-75
2023/10/04 02:45:54;;;;;;;13.73;4.22;;;13.10;89.40;;;;;;5021116;28;20479;-79
2023/10/04 02:48:20;;;;;;;13.65;4.68;;;13.10;89.60;;;;;;5019509;28;20053;-74
2023/10/04 02:50:47;;;;;;;12.80;4.25;;;13.10;89.50;;;;;;5022884;28;20045;-79
2023/10/04 02:53:16;;;;;;;12.13;4.15;;;13.10;89.50;;;;;;5017015;28;20456;-76
2023/10/04 02:55:42;;;;;;;13.60;4.95;;;13.00;89.70;;;;;;5016149;28;20058;-76
2023/10/04 02:58:09;;;;;;;13.07;3.90;;;13.00;89.70;;;;;;5015996;28;20033;-79
2023/10/04 03:00:46;;;;;;;13.77;4.22;;;13.00;89.80;;;;;;5010789;28;20555;-75
2023/10/04 03:03:24;;;;;;;17.40;4.00;;;13.00;89.80;;;;;;5017189;28;20033;-77
2023/10/04 03:05:57;;;;;;;14.35;4.40;;;12.90;89.80;;;;;;5017391;28;20100;-75
2023/10/04 03:08:23;;;;;;;12.00;3.78;;;12.80;89.70;;;;;;5019770;28;20341;-78
2023/10/04 03:10:55;;;;;;;10.48;3.50;;;12.80;89.80;;;;;;5023154;28;20443;-80
2023/10/04 03:13:27;;;;;;;13.27;4.05;;;12.80;90.00;;;;;;5018930;28;20069;-78
2023/10/04 03:15:54;;;;;;;13.93;3.95;;;12.70;89.90;;;;;;5018252;28;20034;-79
2023/10/04 03:18:25;;;;;;;11.77;3.67;;;12.60;90.10;;;;;;5012545;28;20096;-74
2023/10/04 03:23:32;;;;;;;13.13;3.85;;;12.60;90.30;;;;;;5019262;28;20042;-75
2023/10/04 03:26:03;;;;;;;12.32;2.88;;;12.60;90.50;;;;;;5022314;28;20041;-80
2023/10/04 03:28:33;;;;;;;9.85;3.67;;;12.50;90.60;;;;;;5017789;28;20133;-81
2023/10/04 03:31:03;;;;;;;9.65;3.70;;;12.50;90.60;;;;;;5020059;28;20492;-77
2023/10/04 03:33:32;;;;;;;11.52;3.50;;;12.40;90.70;;;;;;5022359;28;20041;-82
2023/10/04 03:35:58;;;;;;;10.25;3.72;;;12.40;90.90;;;;;;5016985;28;20287;-82
2023/10/04 03:38:25;;;;;;;11.25;3.80;;;12.50;90.90;;;;;;5014448;28;20108;-76
2023/10/04 03:40:55;;;;;;;10.18;3.13;;;12.40;90.70;;;;;;5018843;28;20084;-76
2023/10/04 03:43:21;;;;;;;12.95;3.90;;;12.40;90.80;;;;;;5015700;28;20048;-76
2023/10/04 03:45:47;;;;;;;13.73;4.28;;;12.30;90.80;;;;;;5015457;28;20038;-76
2023/10/04 03:48:15;;;;;;;17.95;4.50;;;12.30;90.90;;;;;;5012683;28;20033;-76
2023/10/04 03:50:51;;;;;;;13.98;5.20;;;12.30;91.00;;;;;;5015263;28;20069;-78
2023/10/04 03:53:21;;;;;;;13.98;4.55;;;12.30;91.10;;;;;;5015991;28;20038;-81
2023/10/04 03:55:47;;;;;;;14.43;4.85;;;12.20;91.20;;;;;;5020030;28;20061;-76
2023/10/04 03:58:19;;;;;;;14.38;5.18;;;12.20;91.40;;;;;;5012473;28;20723;-75
2023/10/04 04:00:45;;;;;;;12.23;4.70;;;12.20;91.40;;;;;;5011582;28;20120;-76
2023/10/04 04:03:11;;;;;;;15.07;5.50;;;12.20;91.50;;;;;;5020843;28;20077;-76
2023/10/04 04:05:42;;;;;;;15.02;4.70;;;12.10;91.50;;;;;;5018432;28;20049;-75
2023/10/04 04:08:09;;;;;;;15.35;4.95;;;12.10;91.70;;;;;;5016610;28;20169;-79
2023/10/04 04:10:36;;;;;;;15.50;5.05;;;12.10;91.80;;;;;;5017391;28;20078;-79
2023/10/04 04:13:02;;;;;;;13.63;4.75;;;12.00;91.90;;;;;;5015094;28;20097;-76
2023/10/04 04:15:33;;;;;;;15.80;4.70;;;12.00;92.00;;;;;;5020603;28;20411;-73
2023/10/04 04:17:58;;;;;;;13.98;4.95;;;12.00;92.10;;;;;;5016251;28;20033;-80
2023/10/04 04:20:24;;;;;;;16.77;4.55;;;12.00;92.20;;;;;;5017822;28;20052;-78
2023/10/04 04:22:53;;;;;;;12.48;4.50;;;11.90;92.20;;;;;;5016968;28;20164;-73
2023/10/04 04:25:20;;;;;;;13.98;4.93;;;11.90;92.30;;;;;;5021151;28;20040;-79
2023/10/04 04:27:47;;;;;;;16.58;4.65;;;11.80;92.30;;;;;;5016008;28;20427;-74
2023/10/04 04:30:19;;;;;;;18.52;5.70;;;11.80;92.40;;;;;;5011708;28;20484;-76
2023/10/04 04:32:47;;;;;;;14.82;4.82;;;11.80;92.50;;;;;;5015663;28;20472;-78
2023/10/04 04:35:30;;;;;;;12.85;4.55;;;11.80;92.60;;;;;;5012561;28;20493;-79
2023/10/04 04:37:57;;;;;;;15.38;4.50;;;11.80;92.80;;;;;;5013294;28;20029;-79
2023/10/04 04:40:26;;;;;;;11.95;4.50;;;11.70;92.90;;;;;;5011536;28;20041;-75
2023/10/04 04:42:52;;;;;;;13.75;4.90;;;11.70;92.90;;;;;;5011764;28;20026;-75
2023/10/04 04:45:19;;;;;;;13.18;5.03;;;11.70;92.80;;;;;;5008459;28;20476;-77
2023/10/04 04:47:45;;;;;;;14.52;4.30;;;11.70;92.90;;;;;;5011779;28;20029;-74
2023/10/04 04:50:12;;;;;;;10.50;4.53;;;11.70;92.90;;;;;;5006638;28;20444;-74
2023/10/04 04:52:37;;;;;;;12.93;4.40;;;11.70;92.90;;;;;;5010914;28;20072;-79
2023/10/04 04:55:04;;;;;;;19.63;5.03;;;11.60;93.00;;;;;;5012262;28;20029;-75
2023/10/04 04:57:33;;;;;;;13.25;5.50;;;11.60;93.10;;;;;;5013856;28;20053;-76
2023/10/04 05:00:07;;;;;;;10.30;4.20;;;11.60;93.20;;;;;;5005155;28;20044;-80
2023/10/04 05:02:33;;;;;;;12.95;3.97;;;11.60;93.20;;;;;;5015426;28;20040;-75
2023/10/04 05:04:58;;;;;;;14.20;5.75;;;11.60;93.20;;;;;;5006328;28;20045;-77
2023/10/04 05:07:27;;;;;;;13.93;4.45;;;11.60;93.30;;;;;;5012000;28;20494;-79
2023/10/04 05:09:54;;;;;;;16.95;5.22;;;11.60;93.20;;;;;;5008769;28;20021;-76
2023/10/04 05:12:19;;;;;;;16.60;5.47;;;11.60;93.20;;;;;;5008327;28;20121;-77
2023/10/04 05:14:45;;;;;;;12.48;4.45;;;11.50;93.30;;;;;;5008625;28;20458;-77
2023/10/04 05:17:11;;;;;;;15.77;4.90;;;11.50;93.40;;;;;;5007818;28;20057;-77
2023/10/04 05:19:37;;;;;;;13.68;5.10;;;11.50;93.40;;;;;;5010365;28;20121;-73
2023/10/04 05:22:03;;;;;;;14.85;5.30;;;11.50;93.40;;;;;;5014603;28;20045;-78
2023/10/04 05:24:29;;;;;;;17.20;4.75;;;11.50;93.60;;;;;;5010880;28;20464;-74
2023/10/04 05:26:54;;;;;;;11.82;4.72;;;11.50;93.60;;;;;;5016280;28;20025;-78
2023/10/04 05:29:20;;;;;;;16.10;5.28;;;11.50;93.60;;;;;;5023143;28;20051;-74
2023/10/04 05:31:46;;;;;;;13.30;5.05;;;11.50;93.80;;;;;;5024297;28;20695;-75
2023/10/04 05:34:11;;;;;;;13.82;5.13;;;11.40;93.80;;;;;;5017686;28;20041;-80
2023/10/04 05:36:39;;;;;;;14.55;4.95;;;11.40;93.90;;;;;;5026033;28;20026;-75
2023/10/04 05:39:07;;;;;;;15.25;4.80;;;11.40;93.90;;;;;;5022320;28;20041;-76
2023/10/04 05:41:33;;;;;;;15.43;5.10;;;11.40;94.00;;;;;;5018851;28;20044;-79
2023/10/04 05:43:59;;;;;;;17.58;4.85;;;11.40;94.00;;;;;;5016164;28;20025;-74
2023/10/04 05:46:25;;;;;;;18.15;5.78;;;11.40;94.00;;;;;;5018701;28;20037;-74
2023/10/04 05:48:51;;;;;;;15.50;5.35;;;11.40;94.00;;;;;;5017888;28;20096;-76
2023/10/04 05:51:20;;;;;;;13.60;5.05;;;11.40;94.10;;;;;;5018756;28;20038;-75
2023/10/04 05:53:51;;;;;;;18.30;5.30;;;11.40;94.10;;;;;;5019382;28;20060;-74
2023/10/04 05:56:17;;;;;;;17.85;5.30;;;11.40;94.10;;;;;;5015850;28;20057;-78
2023/10/04 05:58:46;;;;;;;15.98;4.85;;;11.40;94.10;;;;;;5016537;28;20227;-74
2023/10/04 06:01:17;;;;;;;16.63;5.10;;;11.40;94.10;;;;;;5015842;28;20042;-76
2023/10/04 06:03:43;;;;;;;16.42;5.38;;;11.40;94.10;;;;;;5015710;28;20041;-74
2023/10/04 06:06:09;;;;;;;20.25;5.47;;;11.40;94.10;;;;;;5024418;28;20033;-74
2023/10/04 06:08:34;;;;;;;21.60;5.53;;;11.50;94.10;;;;;;5018632;28;20100;-74
2023/10/04 06:11:00;;;;;;;14.88;5.15;;;11.50;94.10;;;;;;5021426;28;20300;-76
2023/10/04 06:13:26;;;;;;;17.23;4.95;;;11.50;94.00;;;;;;5020966;28;20041;-73
2023/10/04 06:15:55;;;;;;;17.52;4.43;;;11.50;94.10;;;;;;5025272;28;20117;-74
2023/10/04 06:18:26;;;;;;;11.88;5.43;;;11.50;94.10;;;;;;5012245;28;20107;-74
2023/10/04 06:20:51;;;;;;;15.25;5.53;;;11.50;94.10;;;;;;5021562;28;20033;-75
2023/10/04 06:23:17;;;;;;;13.80;5.38;;;11.60;94.10;;;;;;5018481;28;20032;-74
2023/10/04 06:25:48;;;;;;;15.13;4.68;;;11.60;94.10;;;;;;5018092;28;20468;-76
2023/10/04 06:28:14;;;;;;;13.13;5.43;;;11.70;94.00;;;;;;5017480;28;20041;-75
2023/10/04 06:30:42;;;;;;;17.83;5.05;;;11.70;93.70;;;;;;5019943;28;20494;-75
2023/10/04 06:33:10;;;;;;;14.18;5.45;;;11.70;93.70;;;;;;5018143;28;20030;-76
2023/10/04 06:35:43;;;;;;;13.50;4.85;;;11.80;93.60;;;;;;5020029;28;20358;-76
2023/10/04 06:38:10;;;;;;;15.13;5.05;;;11.80;93.50;;;;;;5017476;28;20096;-74
2023/10/04 06:40:36;;;;;;;18.45;5.55;;;11.80;93.50;;;;;;5017136;28;20041;-74
2023/10/04 06:43:06;;;;;;;16.83;5.70;;;11.90;93.30;;;;;;5017980;28;20026;-78
2023/10/04 06:45:34;;;;;;;14.90;5.18;;;11.90;93.40;;;;;;5014266;28;20037;-74
2023/10/04 06:48:00;;;;;;;16.30;5.05;;;12.00;93.40;;;;;;5017889;28;20030;-79
2023/10/04 06:50:28;;;;;;;12.52;5.80;;;12.10;93.30;;;;;;5015196;28;20045;-77
2023/10/04 06:52:56;;;;;;;10.75;4.57;;;12.10;93.10;;;;;;5022238;28;20113;-76
2023/10/04 06:55:22;;;;;;;19.23;6.65;;;12.10;93.10;;;;;;5014695;28;20052;-74
2023/10/04 06:57:48;;;;;;;19.27;5.57;;;12.20;92.90;;;;;;5020230;28;20372;-76
2023/10/04 07:00:18;;;;;;;13.45;5.03;;;12.30;92.90;;;;;;5015613;28;20526;-74
2023/10/04 07:02:49;;;;;;;16.33;5.68;;;12.30;92.80;;;;;;5018742;28;20017;-74
2023/10/04 07:05:18;;;;;;;14.23;5.05;;;12.30;92.60;;;;;;5018425;28;20897;-78
2023/10/04 07:07:45;;;;;;;15.48;5.75;;;12.40;92.80;;;;;;5015664;28;20022;-75
2023/10/04 07:10:15;;;;;;;18.13;5.47;;;12.50;92.80;;;;;;5012992;28;20265;-73
2023/10/04 07:12:45;;;;;;;15.27;6.05;;;12.60;92.60;;;;;;5013995;28;20026;-74
2023/10/04 07:15:12;;;;;;;20.92;6.53;;;12.60;92.50;;;;;;5017223;28;20033;-74
2023/10/04 07:17:42;;;;;;;18.85;5.90;;;12.70;92.60;;;;;;5013226;28;20026;-78
2023/10/04 07:20:15;;;;;;;14.45;5.72;;;12.70;92.50;;;;;;5021088;28;20031;-74
2023/10/04 07:22:43;;;;;;;16.13;5.82;;;12.80;92.50;;;;;;5019668;28;20375;-74
2023/10/04 07:25:12;;;;;;;20.02;6.82;;;12.90;92.40;;;;;;5019596;28;20029;-75
2023/10/04 07:27:40;;;;;;;21.92;6.35;;;13.10;92.40;;;;;;5021729;28;20063;-76
2023/10/04 07:30:07;;;;;;;18.52;6.75;;;13.10;92.20;;;;;;5015209;28;20036;-73
2023/10/04 07:32:33;;;;;;;16.58;5.43;;;13.20;92.10;;;;;;5012553;28;20033;-73
2023/10/04 07:35:00;;;;;;;16.25;6.50;;;13.30;91.90;;;;;;5018696;28;20455;-74
2023/10/04 07:37:26;;;;;;;19.15;6.78;;;13.40;91.80;;;;;;5021403;28;20029;-73
2023/10/04 07:39:53;;;;;;;20.10;7.22;;;13.50;91.50;;;;;;5010379;28;20042;-74
2023/10/04 07:42:21;;;;;;;15.50;6.47;;;13.60;91.30;;;;;;5018042;28;20034;-75
2023/10/04 07:44:47;;;;;;;14.93;6.07;;;13.70;91.10;;;;;;5012351;28;20063;-74
2023/10/04 07:47:13;;;;;;;16.75;6.20;;;13.90;91.20;;;;;;5021066;28;20033;-74
2023/10/04 07:49:39;;;;;;;20.90;6.80;;;14.10;90.80;;;;;;5021600;28;20443;-74
2023/10/04 07:52:04;;;;;;;18.02;6.57;;;14.10;90.40;;;;;;5013743;28;20031;-74
2023/10/04 07:54:31;;;;;;;17.13;6.25;;;14.20;90.10;;;;;;5019241;28;20107;-74
2023/10/04 07:56:57;;;;;;;18.38;6.18;;;14.40;90.00;;;;;;5018859;28;20041;-73
2023/10/04 07:59:23;;;;;;;20.50;6.55;;;14.50;89.40;;;;;;5011306;28;20030;-74
2023/10/04 08:01:48;;;;;;;15.23;5.20;;;14.60;89.10;;;;;;5016021;28;20026;-76
2023/10/04 08:04:14;;;;;;;15.77;5.90;;;14.70;89.20;;;;;;5016314;28;20057;-74
2023/10/04 08:06:40;;;;;;;15.23;6.05;;;14.80;89.10;;;;;;5020040;28;20048;-75
2023/10/04 08:09:06;;;;;;;16.30;5.47;;;15.00;88.70;;;;;;5015307;28;20029;-74
2023/10/04 08:11:33;;;;;;;16.55;5.68;;;15.10;87.90;;;;;;5018525;28;20042;-74
2023/10/04 08:13:59;;;;;;;18.08;5.90;;;15.40;88.10;;;;;;5019968;28;20087;-77
2023/10/04 08:16:25;;;;;;;14.55;5.10;;;15.50;87.20;;;;;;5015881;28;20037;-73
2023/10/04 08:18:50;;;;;;;19.83;6.57;;;15.60;87.00;;;;;;5018559;28;20029;-75
2023/10/04 08:21:16;;;;;;;19.30;5.30;;;15.80;86.60;;;;;;5017426;28;20025;-75
2023/10/04 08:23:42;;;;;;;17.50;6.53;;;15.90;86.30;;;;;;5017284;28;20649;-76
2023/10/04 08:26:14;;;;;;;22.25;6.32;;;16.00;86.00;;;;;;5017266;28;20406;-73
2023/10/04 08:28:41;;;;;;;16.33;5.72;;;16.10;85.20;;;;;;5016380;28;20117;-76
2023/10/04 08:31:09;;;;;;;21.00;6.25;;;16.40;84.90;;;;;;5014192;28;20352;-74
2023/10/04 08:33:34;;;;;;;22.65;5.95;;;16.50;84.70;;;;;;5016136;28;20049;-76
2023/10/04 08:36:08;;;;;;;17.58;5.60;;;16.50;85.10;;;;;;5015551;28;20395;-78
2023/10/04 08:38:33;;;;;;;15.57;5.40;;;16.70;84.50;;;;;;5020531;28;20037;-75
2023/10/04 08:41:01;;;;;;;14.55;4.85;;;16.70;84.40;;;;;;5020064;28;20037;-76
2023/10/04 08:43:27;;;;;;;21.02;5.47;;;16.80;84.00;;;;;;5019645;28;20064;-76
2023/10/04 08:45:56;;;;;;;22.20;5.70;;;16.70;84.30;;;;;;5012305;28;20054;-78
2023/10/04 08:48:25;;;;;;;17.85;5.32;;;16.70;83.80;;;;;;5020191;28;20037;-75
2023/10/04 08:51:21;;;;;;;18.00;5.57;;;16.60;84.30;;;;;;5014749;28;20045;-76
2023/10/04 08:54:10;;;;;;;20.33;5.15;;;16.70;83.90;;;;;;5018611;28;20878;-76
2023/10/04 08:56:57;;;;;;;11.48;4.57;;;16.80;84.10;;;;;;5016767;28;20056;-77
2023/10/04 08:59:24;;;;;;;16.77;5.20;;;16.80;84.20;;;;;;5015924;28;20048;-75
2023/10/04 09:01:51;;;;;;;20.95;5.68;;;17.00;83.80;;;;;;5018715;28;20030;-78
2023/10/04 09:04:20;;;;;;;20.08;5.10;;;17.10;83.40;;;;;;5017781;28;20025;-74
2023/10/04 09:06:47;;;;;;;15.75;4.80;;;17.20;83.40;;;;;;5015405;28;20047;-78
2023/10/04 09:09:15;;;;;;;14.73;4.75;;;17.30;82.50;;;;;;5016066;28;20068;-75
2023/10/04 09:11:41;;;;;;;16.85;5.25;;;17.40;82.80;;;;;;5015437;28;20132;-71
2023/10/04 09:14:08;;;;;;;16.48;4.82;;;17.50;82.20;;;;;;5015760;28;20459;-72
2023/10/04 09:16:34;;;;;;;16.02;4.55;;;17.40;82.20;;;;;;5020555;28;20038;-73
2023/10/04 09:19:21;;;;;;;15.57;4.10;;;17.60;82.50;;;;;;5014549;28;20041;-73
2023/10/04 09:21:51;;;;;;;13.98;4.32;;;17.50;81.40;;;;;;5014593;28;20392;-73
2023/10/04 09:24:17;;;;;;;14.88;4.60;;;17.60;82.50;;;;;;5019044;28;20640;-74
2023/10/04 09:26:54;;;;;;;18.33;4.25;;;17.80;81.30;;;;;;5015100;28;20046;-73
2023/10/04 09:29:30;;;;;;;15.93;4.70;;;18.00;80.40;;;;;;5013279;28;20369;-73
2023/10/04 09:31:56;;;;;;;12.45;4.43;;;18.10;79.80;;;;;;5015247;28;20033;-74
2023/10/04 09:34:25;;;;;;;12.93;4.05;;;18.10;79.50;;;;;;5017136;28;20034;-75
2023/10/04 09:36:52;;;;;;;20.88;4.55;;;18.10;79.00;;;;;;5018072;28;20451;-73
2023/10/04 09:39:23;;;;;;;21.45;4.95;;;18.20;79.90;;;;;;5015925;28;20040;-73
2023/10/04 09:41:51;;;;;;;15.90;4.45;;;18.40;79.30;;;;;;5016712;28;20398;-73
2023/10/04 09:44:23;;;;;;;17.15;4.28;;;18.40;79.10;;;;;;5014066;28;20044;-73
2023/10/04 09:46:57;;;;;;;15.75;4.43;;;18.30;78.70;;;;;;5027793;28;20035;-74
2023/10/04 09:49:34;;;;;;;13.57;4.00;;;18.30;78.80;;;;;;5019382;28;20110;-73
2023/10/04 09:52:01;;;;;;;13.93;4.53;;;18.10;78.90;;;;;;5018473;28;20476;-72
2023/10/04 09:54:30;;;;;;;15.45;5.00;;;18.30;78.90;;;;;;5013618;28;20117;-75
2023/10/04 09:56:57;;;;;;;16.95;4.05;;;18.40;78.70;;;;;;5018694;28;20128;-75
2023/10/04 09:59:23;;;;;;;15.48;4.57;;;18.50;78.00;;;;;;5017552;28;20641;-75
2023/10/04 10:01:56;;;;;;;13.48;4.38;;;18.30;78.10;;;;;;5014477;28;20112;-73
2023/10/04 10:04:27;;;;;;;13.05;3.85;;;18.50;78.00;;;;;;5012855;28;20112;-74
2023/10/04 10:07:16;;;;;;;13.00;4.10;;;18.40;78.20;;;;;;5008551;28;20104;-73
2023/10/04 10:10:16;;;;;;;16.55;4.57;;;18.50;78.00;;;;;;5013173;28;20133;-73
2023/10/04 10:12:46;;;;;;;13.20;3.35;;;18.30;77.70;;;;;;5012980;28;20426;-72
2023/10/04 10:15:13;;;;;;;15.02;4.18;;;18.30;77.10;;;;;;5012524;28;20701;-73
2023/10/04 10:17:40;;;;;;;15.63;3.83;;;18.10;76.80;;;;;;5023250;28;20018;-74
2023/10/04 10:20:09;;;;;;;16.40;4.20;;;17.90;77.60;;;;;;5015506;28;20045;-75
2023/10/04 10:22:55;;;;;;;12.93;3.60;;;17.80;78.50;;;;;;5023391;28;20026;-73
2023/10/04 10:25:22;;;;;;;16.80;4.20;;;17.70;79.00;;;;;;5015662;28;20044;-74
2023/10/04 10:27:48;;;;;;;12.40;3.53;;;17.70;78.80;;;;;;5012121;28;20533;-74
2023/10/04 10:30:16;;;;;;;12.90;3.67;;;17.60;78.00;;;;;;5017910;28;20034;-75
2023/10/04 10:33:10;;;;;;;14.98;3.85;;;17.60;78.30;;;;;;5009006;28;20365;-74
2023/10/04 10:35:59;;;;;;;15.95;3.88;;;17.50;77.70;;;;;;5016668;28;20478;-73
2023/10/04 10:38:39;;;;;;;14.65;3.97;;;17.30;78.80;;;;;;5020583;28;20037;-72
2023/10/04 10:41:25;;;;;;;15.38;4.38;;;17.20;80.70;;;;;;5014559;28;20037;-73
2023/10/04 10:44:17;;;;;;;12.13;3.55;;;17.10;81.60;;;;;;5011780;28;20049;-72
2023/10/04 10:47:10;;;;;;;11.35;3.20;;;17.00;83.00;;;;;;5012331;28;20021;-72
2023/10/04 10:49:52;;;;;;;10.95;2.75;;;17.00;83.40;;;;;;5009200;28;20705;-73
2023/10/04 10:52:26;;;;;;;10.02;2.72;;;17.10;82.50;;;;;;5013861;28;20057;-74
2023/10/04 10:54:53;;;;;;;11.65;2.92;;;17.00;82.40;;;;;;5010405;28;20033;-73
2023/10/04 10:57:24;;;;;;;14.02;3.22;;;17.00;82.30;;;;;;5008603;28;20049;-73
2023/10/04 10:59:54;;;;;;;13.20;2.95;;;17.10;81.70;;;;;;5009362;28;20042;-73
2023/10/04 11:02:21;;;;;;;11.95;3.15;;;17.30;81.60;;;;;;5009525;28;20064;-75
2023/10/04 11:04:48;;;;;;;11.27;3.28;;;17.50;81.40;;;;;;5007811;28;20120;-75
2023/10/04 11:07:17;;;;;;;12.18;3.03;;;17.70;81.50;;;;;;5007923;28;20144;-74
2023/10/04 11:09:50;;;;;;;9.98;3.45;;;17.70;81.00;;;;;;5010909;28;20399;-73
2023/10/04 11:12:21;;;;;;;11.63;3.15;;;18.00;80.50;;;;;;5009148;28;20117;-73
2023/10/04 11:14:47;;;;;;;10.35;3.42;;;18.30;79.70;;;;;;5010312;28;20644;-73
2023/10/04 11:17:16;;;;;;;11.25;2.97;;;18.60;78.80;;;;;;5009347;28;20036;-73
2023/10/04 11:19:43;;;;;;;9.25;2.90;;;18.80;78.50;;;;;;5004574;28;20112;-74
2023/10/04 11:22:10;;;;;;;10.98;3.55;;;18.90;78.20;;;;;;5008796;28;20445;-75
2023/10/04 11:24:36;;;;;;;10.32;3.20;;;19.10;78.00;;;;;;5010405;28;20037;-74
2023/10/04 11:27:03;;;;;;;12.82;3.10;;;19.10;77.20;;;;;;5008600;28;20115;-73
2023/10/04 11:29:30;;;;;;;10.80;3.20;;;19.00;77.10;;;;;;5008092;28;20115;-73
2023/10/04 11:31:57;;;;;;;13.05;3.17;;;18.90;77.30;;;;;;5005002;28;20777;-72
2023/10/04 11:34:23;;;;;;;12.70;3.10;;;18.80;77.20;;;;;;5007820;28;20049;-71
2023/10/04 11:36:48;;;;;;;12.45;3.42;;;18.90;76.80;;;;;;5010439;28;20036;-74
2023/10/04 11:39:19;;;;;;;16.33;3.85;;;18.90;76.40;;;;;;5007923;28;20029;-74
2023/10/04 11:41:46;;;;;;;9.98;2.80;;;18.80;76.60;;;;;;5013273;28;20056;-73
2023/10/04 11:44:12;;;;;;;10.23;3.33;;;18.70;76.70;;;;;;5013498;28;20044;-74
2023/10/04 11:46:56;;;;;;;15.50;3.78;;;18.40;77.30;;;;;;5014877;28;20034;-73
2023/10/04 11:49:22;;;;;;;11.10;3.55;;;18.20;77.80;;;;;;5012307;28;20030;-73
2023/10/04 11:51:50;;;;;;;13.45;3.30;;;18.30;78.20;;;;;;5014137;28;20030;-72
2023/10/04 11:54:19;;;;;;;12.88;3.47;;;18.40;77.50;;;;;;5012128;28;20050;-75
2023/10/04 11:56:45;;;;;;;12.45;3.10;;;18.50;77.30;;;;;;4994497;28;20069;-74
2023/10/04 11:59:13;;;;;;;9.05;2.90;;;18.60;76.90;;;;;;4989342;28;20054;-75
2023/10/04 12:01:45;;;;;;;14.10;3.78;;;18.70;77.60;;;;;;5010441;28;20044;-75
2023/10/04 12:04:13;;;;;;;14.23;3.95;;;18.70;76.90;;;;;;5011864;28;20084;-76
2023/10/04 12:06:39;;;;;;;12.70;3.33;;;18.70;77.10;;;;;;4995174;28;20042;-74
2023/10/04 12:09:06;;;;;;;14.85;3.70;;;18.70;77.60;;;;;;4992907;28;20107;-74
2023/10/04 12:11:39;;;;;;;15.00;3.78;;;18.40;77.70;;;;;;4999587;28;20046;-75
2023/10/04 12:14:05;;;;;;;14.55;3.60;;;18.20;77.80;;;;;;4993959;28;20124;-76
2023/10/04 12:16:33;;;;;;;13.85;3.60;;;18.10;78.70;;;;;;5002944;28;20038;-72
2023/10/04 12:19:02;;;;;;;14.05;3.13;;;18.00;79.30;;;;;;4991977;28;20030;-76
2023/10/04 12:21:28;;;;;;;11.15;3.53;;;18.00;79.50;;;;;;4994820;28;20138;-73
2023/10/04 12:23:54;;;;;;;12.88;3.40;;;18.20;79.40;;;;;;4996611;28;20056;-74
2023/10/04 12:26:20;;;;;;;13.88;3.10;;;18.30;79.20;;;;;;4995159;28;20810;-74
2023/10/04 12:28:48;;;;;;;13.10;3.72;;;18.40;79.00;;;;;;4994039;28;20124;-75
2023/10/04 12:31:13;;;;;;;14.25;3.63;;;18.20;79.00;;;;;;4993547;28;20444;-73
2023/10/04 12:33:39;;;;;;;14.68;4.35;;;18.40;78.90;;;;;;4991385;28;20039;-75
2023/10/04 12:36:05;;;;;;;14.38;3.92;;;18.20;79.10;;;;;;4998013;28;20044;-75
2023/10/04 12:38:30;;;;;;;16.60;4.10;;;18.30;79.40;;;;;;4998778;28;20038;-76
2023/10/04 12:40:56;;;;;;;14.45;3.58;;;18.60;79.30;;;;;;4996349;28;20492;-74
2023/10/04 12:43:24;;;;;;;16.35;3.92;;;18.90;78.10;;;;;;4992608;28;20512;-75
2023/10/04 12:45:53;;;;;;;14.70;3.90;;;18.90;77.70;;;;;;4993296;28;20535;-74
2023/10/04 12:48:19;;;;;;;10.70;3.45;;;18.80;77.50;;;;;;4998561;28;20033;-73